»·PEaware :: N287JB KAMA-KDEN

N287JB :: KAMA-KDEN

FLIGHT INFORMATION

Flight Status: Arrived
Operator: Privately registered:
United States
More flights under this callsign
Pilot: John Lasher (16055)
Aircraft: Unknown
(VIPJ)
More flights by this aircraft type
Origin: KAMA Amarillo Intl
United States
Destination: KDEN Denver Intl
United States
More flights between these airports :: More routes between these airports
Route: +PNH QUAIL QUAIL8
File this flight plan on PilotEdge
Remarks: EVIC / G
Altitude:
(Current/Filed)
24,000ft
Speed:
(Current/Filed)
400kts
Departed: 12-Aug-17 09:46 PM
Arrived: 12-Aug-17 11:39 PM
Distance/Time
Traveled:
312nm/1:53
Distance/Time
To Go:
Arrived

Flight Plot

Page will automatically refresh every two minutes.

Flight plan parsing failed; only flown route is shown


Map Options




Map Legend


Flown Route
Filed Route
Departure Airport
Arrival Airport
Navaid (VOR, NDB)
Fix

Horizontal Profiles

Position Reports

Time Latitude Longitude Heading Altitude Ground
Speed
12-Aug-17 21:28 35.216858 -101.708992 225 3610ft 0kts
12-Aug-17 21:29 35.216858 -101.708992 225 3610ft 0kts
12-Aug-17 21:30 35.216858 -101.708992 225 3610ft 0kts
12-Aug-17 21:31 35.216858 -101.708992 225 3610ft 0kts
12-Aug-17 21:32 35.216858 -101.708992 225 3610ft 0kts
12-Aug-17 21:33 35.216858 -101.708992 225 3610ft 0kts
12-Aug-17 21:34 35.216858 -101.708992 225 3610ft 0kts
12-Aug-17 21:35 35.216858 -101.708992 225 3610ft 0kts
12-Aug-17 21:36 35.216857 -101.708993 225 3610ft 0kts
12-Aug-17 21:37 35.217221 -101.709709 310 3610ft 4kts
12-Aug-17 21:38 35.218645 -101.710403 43 3610ft 9kts
12-Aug-17 21:39 35.221458 -101.706854 42 3610ft 18kts
12-Aug-17 21:40 35.222856 -101.705099 45 3610ft 16kts
12-Aug-17 21:41 35.225000 -101.702439 46 3610ft 13kts
12-Aug-17 21:42 35.225786 -101.701431 44 3610ft 11kts
12-Aug-17 21:43 35.227334 -101.699521 47 3610ft 3kts
12-Aug-17 21:44 35.227954 -101.698823 39 3610ft 5kts
12-Aug-17 21:45 35.228324 -101.698430 41 3610ft 0kts
12-Aug-17 21:46 35.228324 -101.698430 41 3610ft 0kts
12-Aug-17 21:47 35.228324 -101.698430 41 3610ft 0kts
12-Aug-17 21:48 35.228622 -101.698133 36 3610ft 3kts
12-Aug-17 21:49 35.229064 -101.696181 137 3610ft 10kts
12-Aug-17 21:50 35.211996 -101.676135 137 4247ft 159kts
12-Aug-17 21:51 35.176092 -101.634226 136 7421ft 193kts
12-Aug-17 21:52 35.170236 -101.586032 17 10824ft 201kts
12-Aug-17 21:52 35.219675 -101.581827 331 13032ft 220kts
12-Aug-17 21:53 35.276337 -101.619232 330 15218ft 264kts
12-Aug-17 21:55 35.359388 -101.669315 332 17101ft 326kts
12-Aug-17 21:56 35.433941 -101.713281 331 21062ft 284kts
12-Aug-17 21:56 35.493330 -101.748700 330 22840ft 296kts
12-Aug-17 21:57 35.569852 -101.794430 330 24117ft 326kts
12-Aug-17 21:58 35.655701 -101.845812 331 24145ft 362kts
12-Aug-17 21:59 35.749025 -101.902043 332 24137ft 382kts
12-Aug-17 22:00 35.845885 -101.959977 332 24132ft 393kts
12-Aug-17 22:01 35.944517 -102.019400 332 24129ft 398kts
12-Aug-17 22:02 36.039687 -102.076940 332 24128ft 401kts
12-Aug-17 22:03 36.139712 -102.137566 332 24131ft 402kts
12-Aug-17 22:04 36.240055 -102.198577 332 24106ft 404kts
12-Aug-17 22:05 36.340686 -102.259921 332 24129ft 404kts
12-Aug-17 22:06 36.441306 -102.321447 332 24076ft 405kts
12-Aug-17 22:07 36.542068 -102.384143 332 23996ft 406kts
12-Aug-17 22:08 36.642854 -102.445912 332 23992ft 405kts
12-Aug-17 22:09 36.743687 -102.508081 332 23991ft 404kts
12-Aug-17 22:10 39.263803 -104.127894 319 23957ft 401kts
12-Aug-17 22:11 39.359980 -104.238669 316 24168ft 396kts
12-Aug-17 22:12 39.441802 -104.333037 316 24196ft 397kts
12-Aug-17 22:13 39.635045 -104.602845 262 24160ft 395kts
12-Aug-17 22:14 39.556067 -104.663765 174 24146ft 433kts
12-Aug-17 22:15 39.536796 -104.656318 159 24145ft 439kts
12-Aug-17 22:16 35.216861 -101.708997 225 3610ft 0kts
12-Aug-17 22:17 35.216861 -101.708997 225 3610ft 0kts
12-Aug-17 22:18 35.216861 -101.708997 225 3610ft 0kts
12-Aug-17 22:19 35.216861 -101.708997 225 3610ft 0kts
12-Aug-17 22:20 35.216861 -101.708997 225 3610ft 0kts
12-Aug-17 22:21 35.216861 -101.708997 225 3610ft 0kts
12-Aug-17 22:22 35.216861 -101.708997 225 3610ft 0kts
12-Aug-17 22:23 35.216918 -101.709275 311 3610ft 3kts
12-Aug-17 22:24 35.218178 -101.710732 351 3610ft 7kts
12-Aug-17 22:25 35.220357 -101.708357 42 3610ft 18kts
12-Aug-17 22:26 35.225748 -101.701528 44 3610ft 36kts
12-Aug-17 22:27 35.228422 -101.698386 41 3610ft 0kts
12-Aug-17 22:28 35.228422 -101.698386 41 3610ft 0kts
12-Aug-17 22:29 35.228422 -101.698386 41 3610ft 0kts
12-Aug-17 22:30 35.229126 -101.697488 47 3610ft 10kts
12-Aug-17 22:31 35.219019 -101.684293 132 3855ft 130kts
12-Aug-17 22:32 35.190016 -101.644487 90 6794ft 164kts
12-Aug-17 22:33 35.231797 -101.625711 5 9475ft 205kts
12-Aug-17 22:34 35.291774 -101.619055 5 12242ft 228kts
12-Aug-17 22:35 35.347324 -101.643949 330 15406ft 214kts
12-Aug-17 22:36 35.405477 -101.679374 331 17046ft 269kts
12-Aug-17 22:37 35.475097 -101.721093 331 19477ft 284kts
12-Aug-17 22:38 35.546257 -101.763794 330 21829ft 292kts
12-Aug-17 22:39 35.620117 -101.808250 330 23860ft 303kts
12-Aug-17 22:40 35.702061 -101.858130 332 24186ft 355kts
12-Aug-17 22:41 35.793780 -101.913224 332 24164ft 377kts
12-Aug-17 22:42 35.888658 -101.970895 332 24160ft 389kts
12-Aug-17 22:43 35.986693 -102.030266 332 24157ft 396kts
12-Aug-17 22:44 36.085629 -102.090540 332 24155ft 399kts
12-Aug-17 22:45 36.185341 -102.151490 332 24158ft 402kts
12-Aug-17 22:46 36.285322 -102.212766 332 24138ft 403kts
12-Aug-17 22:47 36.385385 -102.274283 332 24156ft 403kts
12-Aug-17 22:48 36.485919 -102.336279 332 24019ft 407kts
12-Aug-17 22:49 36.587106 -102.398821 332 23992ft 406kts
12-Aug-17 22:50 36.687872 -102.461307 331 23991ft 404kts
12-Aug-17 22:51 36.788176 -102.523743 332 23991ft 404kts
12-Aug-17 22:52 36.888234 -102.586091 332 24133ft 400kts
12-Aug-17 22:53 36.987630 -102.648296 332 24152ft 401kts
12-Aug-17 22:54 37.087255 -102.710800 331 24156ft 402kts
12-Aug-17 22:55 37.187229 -102.773709 331 24158ft 403kts
12-Aug-17 22:56 37.287231 -102.836841 331 24158ft 404kts
12-Aug-17 22:57 37.387382 -102.900237 331 24157ft 404kts
12-Aug-17 22:58 37.487274 -102.963666 330 24156ft 404kts
12-Aug-17 22:59 37.587366 -103.027291 329 24153ft 404kts
12-Aug-17 23:00 37.630849 -103.055146 329 24153ft 404kts
12-Aug-17 23:01 37.653209 -103.069448 329 24153ft 404kts
12-Aug-17 23:02 37.692270 -103.094443 329 24152ft 405kts
12-Aug-17 23:03 37.792611 -103.158749 329 24152ft 405kts
12-Aug-17 23:04 37.892138 -103.222727 329 24151ft 405kts
12-Aug-17 23:05 37.992600 -103.287504 329 24151ft 405kts
12-Aug-17 23:06 38.092464 -103.352095 329 24150ft 405kts
12-Aug-17 23:07 38.192504 -103.416996 329 24151ft 405kts
12-Aug-17 23:08 38.292656 -103.482206 330 24151ft 405kts
12-Aug-17 23:09 38.392648 -103.547453 329 24150ft 405kts
12-Aug-17 23:10 38.492406 -103.612800 329 24149ft 404kts
12-Aug-17 23:11 38.569685 -103.663542 329 24156ft 404kts
12-Aug-17 23:12 38.669586 -103.729308 329 24149ft 405kts
12-Aug-17 23:13 38.769574 -103.795367 329 24154ft 405kts
12-Aug-17 23:14 38.869361 -103.861544 329 24152ft 405kts
12-Aug-17 23:15 38.969382 -103.928127 329 24155ft 405kts
12-Aug-17 23:16 39.066315 -103.992589 329 21829ft 376kts
12-Aug-17 23:17 39.151625 -104.049582 328 18277ft 319kts
12-Aug-17 23:18 39.227124 -104.100272 328 17160ft 304kts
12-Aug-17 23:19 39.294922 -104.162627 313 17162ft 300kts
12-Aug-17 23:20 39.356690 -104.234783 315 17155ft 300kts
12-Aug-17 23:21 39.419004 -104.306705 315 17126ft 288kts
12-Aug-17 23:22 39.476175 -104.372627 314 13866ft 280kts
12-Aug-17 23:23 39.532952 -104.438210 314 10565ft 259kts
12-Aug-17 23:24 39.577365 -104.489086 314 10370ft 196kts
12-Aug-17 23:25 39.619292 -104.536799 314 10999ft 210kts
12-Aug-17 23:26 39.666080 -104.569523 356 10986ft 208kts
12-Aug-17 23:27 39.722915 -104.574889 348 10988ft 205kts
12-Aug-17 23:28 39.770211 -104.579701 348 10988ft 205kts
12-Aug-17 23:29 39.826909 -104.585464 348 10987ft 205kts
12-Aug-17 23:30 39.882837 -104.590987 348 10740ft 192kts
12-Aug-17 23:32 39.935058 -104.595452 348 9842ft 162kts
12-Aug-17 23:33 39.976538 -104.596877 348 8995ft 152kts
12-Aug-17 23:34 40.019148 -104.598627 348 8987ft 153kts
12-Aug-17 23:35 40.041136 -104.625405 262 8913ft 135kts
12-Aug-17 23:36 40.024519 -104.658028 190 8513ft 138kts
12-Aug-17 23:37 39.990190 -104.658241 196 8009ft 114kts
12-Aug-17 23:38 39.958403 -104.658936 195 7387ft 114kts
12-Aug-17 23:39 39.926864 -104.659385 192 6759ft 113kts
12-Aug-17 23:40 39.895600 -104.659731 195 6148ft 112kts
12-Aug-17 23:41 39.864195 -104.659530 185 5553ft 116kts
12-Aug-17 23:42 39.839789 -104.660267 183 5438ft 42kts
12-Aug-17 23:43 39.832257 -104.662914 270 5438ft 0kts
12-Aug-17 23:44 39.832353 -104.663276 280 5438ft 0kts
12-Aug-17 23:45 39.834665 -104.662465 357 5438ft 23kts
12-Aug-17 23:46 39.842705 -104.662271 295 5438ft 1kts
12-Aug-17 23:47 39.840187 -104.663166 265 5438ft 16kts
12-Aug-17 23:48 39.838233 -104.664783 204 5438ft 0kts
12-Aug-17 23:49 39.837870 -104.665289 356 5438ft 0kts
12-Aug-17 23:50 39.837872 -104.665289 351 5438ft 0kts
12-Aug-17 23:51 39.837872 -104.665289 351 5438ft 0kts
12-Aug-17 23:52 39.904748 -104.659555 194 6325ft 112kts
12-Aug-17 23:53 39.903314 -104.659586 195 6298ft 112kts
12-Aug-17 23:54 39.874948 -104.659861 184 5731ft 114kts
12-Aug-17 23:55 39.891359 -104.659789 194 6066ft 112kts
12-Aug-17 23:56 39.859951 -104.659221 193 5522ft 107kts

Navigation Log

Ident Type
Flight plan parsing failed, navigation log unavailable